Time;durP1;ratioP1;P1;durP2;ratioP2;P2;SDS_P1;SDS_P2;PMS_P1;PMS_P2;Temp;Humidity;BMP_temperature;BMP_pressure;BME280_temperature;BME280_humidity;BME280_pressure;Samples;Min_cycle;Max_cycle;Signal;HPM_P1;HPM_P2
2022/12/07 00:01:20;;;;;;;32.53;20.80;;;1.60;75.00;;;;;;5056870;28;20138;-67
2022/12/07 00:03:47;;;;;;;31.42;19.13;;;1.60;75.70;;;;;;5052321;28;20029;-67
2022/12/07 00:06:14;;;;;;;32.50;20.35;;;1.60;75.00;;;;;;5050772;28;20036;-67
2022/12/07 00:08:40;;;;;;;31.27;19.45;;;1.60;75.40;;;;;;5043342;28;20111;-67
2022/12/07 00:11:14;;;;;;;31.20;17.52;;;1.60;75.60;;;;;;5047489;28;20119;-67
2022/12/07 00:13:40;;;;;;;27.23;17.13;;;1.60;76.20;;;;;;5041127;28;20032;-67
2022/12/07 00:16:15;;;;;;;32.38;18.05;;;1.60;76.50;;;;;;5054215;28;20017;-67
2022/12/07 00:18:47;;;;;;;25.77;16.55;;;1.50;76.90;;;;;;5051221;28;20044;-67
2022/12/07 00:21:16;;;;;;;23.02;14.98;;;1.60;76.10;;;;;;5044636;28;20029;-67
2022/12/07 00:23:43;;;;;;;27.55;16.50;;;1.50;76.50;;;;;;5040159;28;20117;-67
2022/12/07 00:26:13;;;;;;;27.13;15.20;;;1.50;77.10;;;;;;5053692;28;20048;-67
2022/12/07 00:28:39;;;;;;;23.38;14.68;;;1.50;76.30;;;;;;5049746;28;20486;-67
2022/12/07 00:31:07;;;;;;;19.70;13.93;;;1.50;77.50;;;;;;5046611;28;20112;-67
2022/12/07 00:33:34;;;;;;;20.52;13.45;;;1.50;77.40;;;;;;5047868;28;20044;-67
2022/12/07 00:36:00;;;;;;;22.65;14.60;;;1.50;77.00;;;;;;5042297;28;20108;-67
2022/12/07 00:38:29;;;;;;;24.00;14.63;;;1.50;77.90;;;;;;5048387;28;20029;-67
2022/12/07 00:41:10;;;;;;;19.63;12.90;;;1.50;78.50;;;;;;5046097;28;20020;-67
2022/12/07 00:43:36;;;;;;;23.00;14.10;;;1.50;77.90;;;;;;5072295;28;20028;-67
2022/12/07 00:46:01;;;;;;;23.08;15.35;;;1.50;79.50;;;;;;5081473;28;20029;-67
2022/12/07 00:48:27;;;;;;;20.45;13.15;;;1.50;80.20;;;;;;5052036;28;20032;-67
2022/12/07 00:50:53;;;;;;;24.70;16.58;;;1.50;79.50;;;;;;5044840;28;20045;-67
2022/12/07 00:53:19;;;;;;;20.50;14.00;;;1.50;79.80;;;;;;5047876;28;20117;-67
2022/12/07 00:55:45;;;;;;;25.95;15.77;;;1.50;79.80;;;;;;5045481;28;20029;-67
2022/12/07 00:58:11;;;;;;;19.92;14.48;;;1.50;79.70;;;;;;5049346;28;20036;-67
2022/12/07 01:00:38;;;;;;;22.10;13.18;;;1.60;79.70;;;;;;5051319;28;20441;-67
2022/12/07 01:03:06;;;;;;;26.00;14.93;;;1.60;80.50;;;;;;5042912;28;20096;-67
2022/12/07 01:05:31;;;;;;;27.80;15.02;;;1.60;80.60;;;;;;5051632;28;20036;-67
2022/12/07 01:07:57;;;;;;;22.65;15.55;;;1.60;81.50;;;;;;5047440;28;20474;-67
2022/12/07 01:10:23;;;;;;;21.35;14.35;;;1.60;82.00;;;;;;5055609;28;20037;-66
2022/12/07 01:12:49;;;;;;;23.75;15.38;;;1.50;81.50;;;;;;5044021;28;20055;-67
2022/12/07 01:15:15;;;;;;;26.67;15.23;;;1.60;80.90;;;;;;5054084;28;20049;-67
2022/12/07 01:17:40;;;;;;;26.15;17.10;;;1.60;81.70;;;;;;5045752;28;20029;-67
2022/12/07 01:20:07;;;;;;;27.00;16.20;;;1.60;82.40;;;;;;5041060;28;20426;-67
2022/12/07 01:22:40;;;;;;;24.88;14.35;;;1.50;81.40;;;;;;5046945;28;20047;-67
2022/12/07 01:25:07;;;;;;;22.55;14.52;;;1.60;81.20;;;;;;5047023;28;20308;-67
2022/12/07 01:27:33;;;;;;;30.15;17.33;;;1.60;82.00;;;;;;5054202;28;20037;-67
2022/12/07 01:29:59;;;;;;;24.80;14.68;;;1.60;81.90;;;;;;5040816;28;20033;-67
2022/12/07 01:32:25;;;;;;;23.02;15.23;;;1.60;81.60;;;;;;5052685;28;20071;-67
2022/12/07 01:34:51;;;;;;;21.88;14.32;;;1.60;80.90;;;;;;5051078;28;20024;-67
2022/12/07 01:37:16;;;;;;;20.90;13.25;;;1.60;81.30;;;;;;5055304;28;20318;-67
2022/12/07 01:39:50;;;;;;;21.52;14.32;;;1.50;81.60;;;;;;5052186;28;20099;-67
2022/12/07 01:42:17;;;;;;;20.75;13.40;;;1.60;81.10;;;;;;5047032;28;20329;-67
2022/12/07 01:45:20;;;;;;;21.80;13.57;;;1.60;81.80;;;;;;5050423;28;20021;-67
2022/12/07 01:47:53;;;;;;;26.77;13.88;;;1.60;81.60;;;;;;5051265;28;20382;-66
2022/12/07 01:50:27;;;;;;;21.13;13.75;;;1.60;82.20;;;;;;5045333;28;20031;-66
2022/12/07 01:52:57;;;;;;;27.42;15.95;;;1.50;82.50;;;;;;5053802;28;20021;-66
2022/12/07 01:55:23;;;;;;;38.03;17.80;;;1.50;82.40;;;;;;5041858;28;20029;-68
2022/12/07 01:57:53;;;;;;;30.17;16.33;;;1.50;81.50;;;;;;5049321;28;20349;-68
2022/12/07 02:00:19;;;;;;;25.20;15.10;;;1.50;81.00;;;;;;5043659;28;20025;-68
2022/12/07 02:03:17;;;;;;;23.08;14.38;;;1.50;80.50;;;;;;5042838;28;20021;-68
2022/12/07 02:05:43;;;;;;;18.95;12.80;;;1.50;79.90;;;;;;5050804;28;20112;-67
2022/12/07 02:08:16;;;;;;;23.38;14.60;;;1.50;80.50;;;;;;5043038;28;20102;-67
2022/12/07 02:10:42;;;;;;;20.75;13.35;;;1.50;80.60;;;;;;5047278;28;20079;-67
2022/12/07 02:13:18;;;;;;;22.40;13.65;;;1.50;80.60;;;;;;5048109;28;20053;-67
2022/12/07 02:15:55;;;;;;;18.83;12.80;;;1.50;79.90;;;;;;5045571;28;20704;-67
2022/12/07 02:18:32;;;;;;;21.73;14.43;;;1.50;80.50;;;;;;5047551;28;20027;-67
2022/12/07 02:21:01;;;;;;;16.98;12.48;;;1.50;80.60;;;;;;5046377;28;20105;-67
2022/12/07 02:23:57;;;;;;;23.92;15.48;;;1.50;79.90;;;;;;5050443;28;20307;-67
2022/12/07 02:26:43;;;;;;;17.77;12.27;;;1.50;80.50;;;;;;5048286;28;20033;-67
2022/12/07 02:29:34;;;;;;;21.73;14.30;;;1.50;79.90;;;;;;5042006;28;20122;-67
2022/12/07 02:32:22;;;;;;;25.90;15.73;;;1.50;80.30;;;;;;5056270;28;20446;-67
2022/12/07 02:34:50;;;;;;;21.13;14.30;;;1.50;80.20;;;;;;5046213;28;20025;-67
2022/12/07 02:37:32;;;;;;;22.85;14.10;;;1.50;80.30;;;;;;5052157;28;20025;-67
2022/12/07 02:40:04;;;;;;;22.08;14.90;;;1.50;79.90;;;;;;5035827;28;20029;-67
2022/12/07 02:42:45;;;;;;;19.33;13.50;;;1.50;80.60;;;;;;5043072;28;20033;-67
2022/12/07 02:45:14;;;;;;;24.15;15.98;;;1.50;79.60;;;;;;5048841;28;20025;-67
2022/12/07 02:47:40;;;;;;;18.08;11.90;;;1.50;80.40;;;;;;5039873;28;20021;-68
2022/12/07 02:50:09;;;;;;;24.38;15.15;;;1.60;79.30;;;;;;5048929;28;20032;-67
2022/12/07 02:52:35;;;;;;;21.85;14.00;;;1.60;80.60;;;;;;5050250;28;20155;-67
2022/12/07 02:55:01;;;;;;;19.15;12.82;;;1.50;81.20;;;;;;5044770;28;20461;-67
2022/12/07 02:57:54;;;;;;;25.75;15.52;;;1.50;80.60;;;;;;5053469;28;20309;-67
2022/12/07 03:00:20;;;;;;;25.13;16.10;;;1.50;80.50;;;;;;5037990;28;20454;-67
2022/12/07 03:03:04;;;;;;;19.65;14.48;;;1.50;79.90;;;;;;5046058;28;20381;-67
2022/12/07 03:05:51;;;;;;;25.75;15.95;;;1.50;78.70;;;;;;5047451;28;20029;-67
2022/12/07 03:08:22;;;;;;;23.27;15.35;;;1.50;78.90;;;;;;5048778;28;20037;-67
2022/12/07 03:11:16;;;;;;;24.02;15.80;;;1.50;78.70;;;;;;5040172;28;20442;-67
2022/12/07 03:14:03;;;;;;;;;;;1.50;78.40;;;;;;5066943;28;20069;-67
2022/12/07 03:16:43;;;;;;;22.85;14.23;;;1.50;77.90;;;;;;5038270;28;20288;-67
2022/12/07 03:19:17;;;;;;;24.02;15.52;;;1.50;78.30;;;;;;5044343;28;20028;-67
2022/12/07 03:21:44;;;;;;;;;;;1.60;77.60;;;;;;5042988;28;20037;-67
2022/12/07 03:24:22;;;;;;;22.50;13.75;;;1.60;78.20;;;;;;5045870;28;20289;-67
2022/12/07 03:26:54;;;;;;;25.40;15.98;;;1.60;77.40;;;;;;5045135;28;20041;-67
2022/12/07 03:29:28;;;;;;;28.17;15.80;;;1.60;78.80;;;;;;5040713;28;20303;-67
2022/12/07 03:32:06;;;;;;;25.45;16.55;;;1.60;78.50;;;;;;5041784;28;20100;-67
2022/12/07 03:35:05;;;;;;;27.30;17.48;;;1.60;80.30;;;;;;5041139;28;20038;-67
2022/12/07 03:37:36;;;;;;;21.48;14.68;;;1.60;80.30;;;;;;5037962;28;20322;-67
2022/12/07 03:40:22;;;;;;;18.48;12.93;;;1.50;80.80;;;;;;5042828;28;20029;-65
2022/12/07 03:42:49;;;;;;;24.38;16.25;;;1.50;81.90;;;;;;5039742;28;20757;-67
2022/12/07 03:45:19;;;;;;;22.13;15.35;;;1.50;83.90;;;;;;5037443;28;20026;-67
2022/12/07 03:48:01;;;;;;;28.65;18.10;;;1.40;84.40;;;;;;5040472;28;20154;-67
2022/12/07 03:50:42;;;;;;;27.77;18.13;;;1.30;84.90;;;;;;5047465;28;20041;-67
2022/12/07 03:53:18;;;;;;;32.10;19.73;;;1.30;84.90;;;;;;5045138;28;20024;-67
2022/12/07 03:55:45;;;;;;;26.88;16.75;;;1.20;84.80;;;;;;5050374;28;20299;-67
2022/12/07 03:58:16;;;;;;;35.03;23.95;;;1.20;83.20;;;;;;5048214;28;20104;-67
2022/12/07 04:00:43;;;;;;;29.92;17.77;;;1.20;84.00;;;;;;5054088;28;20052;-67
2022/12/07 04:03:09;;;;;;;31.73;19.98;;;1.10;83.40;;;;;;5036627;28;20052;-67
2022/12/07 04:05:35;;;;;;;23.02;15.38;;;1.10;82.90;;;;;;5070462;28;20025;-67
2022/12/07 04:08:01;;;;;;;28.75;18.05;;;1.00;82.30;;;;;;5049402;28;20441;-67
2022/12/07 04:10:29;;;;;;;23.98;16.33;;;1.00;81.80;;;;;;5050975;28;20035;-67
2022/12/07 04:12:58;;;;;;;28.27;16.98;;;1.00;82.40;;;;;;5040878;28;20079;-67
2022/12/07 04:15:24;;;;;;;28.40;17.60;;;0.90;82.70;;;;;;5038779;28;20047;-67
2022/12/07 04:17:50;;;;;;;27.65;16.60;;;0.90;83.30;;;;;;5051625;28;20323;-67
2022/12/07 04:20:16;;;;;;;25.33;15.55;;;0.90;82.50;;;;;;5045764;28;20029;-67
2022/12/07 04:22:42;;;;;;;21.00;12.82;;;0.90;83.00;;;;;;5051109;28;20033;-67
2022/12/07 04:25:07;;;;;;;20.02;12.60;;;0.80;84.00;;;;;;5043944;28;20037;-68
2022/12/07 04:27:33;;;;;;;20.40;13.73;;;0.80;82.70;;;;;;5051348;28;20036;-67
2022/12/07 04:29:59;;;;;;;27.58;17.08;;;0.80;83.20;;;;;;5052863;28;20037;-67
2022/12/07 04:32:24;;;;;;;23.83;15.57;;;0.80;84.10;;;;;;5048535;28;20037;-67
2022/12/07 04:34:50;;;;;;;19.75;12.88;;;0.70;83.80;;;;;;5044728;28;20021;-68
2022/12/07 04:37:17;;;;;;;39.95;23.95;;;0.70;83.80;;;;;;5048952;28;20013;-67
2022/12/07 04:39:44;;;;;;;27.60;16.80;;;0.70;83.10;;;;;;5056968;28;20029;-67
2022/12/07 04:42:10;;;;;;;23.58;15.05;;;0.60;82.90;;;;;;5051687;28;20033;-67
2022/12/07 04:44:36;;;;;;;17.27;11.98;;;0.60;82.00;;;;;;5047656;28;20317;-67
2022/12/07 04:47:02;;;;;;;17.75;11.48;;;0.70;80.20;;;;;;5046329;28;20026;-67
2022/12/07 04:49:28;;;;;;;18.95;11.77;;;0.80;80.60;;;;;;5051430;28;20047;-66
2022/12/07 04:51:53;;;;;;;16.73;10.75;;;0.80;83.10;;;;;;5054801;28;20029;-69
2022/12/07 04:54:25;;;;;;;25.48;14.75;;;0.70;83.00;;;;;;5055274;28;20075;-68
2022/12/07 04:56:53;;;;;;;23.40;13.63;;;0.70;84.10;;;;;;5056204;28;20037;-68
2022/12/07 04:59:19;;;;;;;48.45;33.17;;;0.70;84.50;;;;;;5056545;28;20036;-68
2022/12/07 05:01:44;;;;;;;38.08;26.15;;;0.60;83.50;;;;;;5053224;28;20441;-68
2022/12/07 05:04:10;;;;;;;33.95;20.70;;;0.60;82.90;;;;;;5051226;28;20033;-68
2022/12/07 05:06:36;;;;;;;24.38;14.80;;;0.50;82.00;;;;;;5048779;28;20040;-67
2022/12/07 05:09:02;;;;;;;17.55;11.43;;;0.50;80.90;;;;;;5047972;28;20040;-68
2022/12/07 05:11:43;;;;;;;22.27;13.13;;;0.50;80.00;;;;;;5053928;28;20418;-68
2022/12/07 05:14:10;;;;;;;25.45;14.50;;;0.60;80.40;;;;;;5048630;28;20021;-68
2022/12/07 05:16:36;;;;;;;18.27;11.48;;;0.50;81.40;;;;;;5046877;28;20026;-68
2022/12/07 05:19:02;;;;;;;16.75;10.70;;;0.40;81.40;;;;;;5040483;28;20028;-67
2022/12/07 05:21:28;;;;;;;16.42;10.65;;;0.30;80.90;;;;;;5039355;28;20026;-67
2022/12/07 05:23:53;;;;;;;17.00;11.20;;;0.30;81.60;;;;;;5051439;28;20094;-68
2022/12/07 05:26:19;;;;;;;16.63;10.50;;;0.20;81.50;;;;;;5049909;28;20049;-67
2022/12/07 05:28:45;;;;;;;14.30;9.38;;;0.20;79.50;;;;;;5049206;28;20056;-67
2022/12/07 05:31:10;;;;;;;15.48;9.65;;;0.20;80.50;;;;;;5048510;28;20046;-68
2022/12/07 05:33:36;;;;;;;18.00;11.57;;;0.10;82.70;;;;;;5053523;28;20096;-67
2022/12/07 05:36:05;;;;;;;15.48;9.90;;;-0.10;83.20;;;;;;5053863;28;20017;-67
2022/12/07 05:38:32;;;;;;;13.95;8.93;;;-0.20;82.70;;;;;;5053166;28;20029;-67
2022/12/07 05:41:03;;;;;;;15.63;10.23;;;-0.20;81.60;;;;;;5054497;28;20040;-68
2022/12/07 05:43:30;;;;;;;14.65;9.18;;;-0.20;80.80;;;;;;5048039;28;20024;-68
2022/12/07 05:45:56;;;;;;;15.75;9.48;;;-0.30;81.70;;;;;;5055201;28;20017;-68
2022/12/07 05:48:21;;;;;;;18.83;10.02;;;-0.40;81.10;;;;;;5049815;28;20087;-67
2022/12/07 05:50:51;;;;;;;17.50;9.95;;;-0.50;81.00;;;;;;5052945;28;20375;-67
2022/12/07 05:53:17;;;;;;;16.40;9.65;;;-0.60;80.80;;;;;;5056082;28;20075;-68
2022/12/07 05:55:43;;;;;;;14.60;7.80;;;-0.60;79.00;;;;;;5041038;28;20149;-67
2022/12/07 06:00:56;;;;;;;14.32;8.85;;;-0.60;78.00;;;;;;5041665;28;20032;-67
2022/12/07 06:03:22;;;;;;;16.27;9.93;;;-0.70;79.40;;;;;;5051756;28;20040;-68
2022/12/07 06:05:47;;;;;;;15.48;9.70;;;-0.80;79.70;;;;;;5043270;28;20322;-67
2022/12/07 06:08:14;;;;;;;17.95;11.68;;;-0.90;78.80;;;;;;5044358;28;20025;-67
2022/12/07 06:10:40;;;;;;;16.48;9.80;;;-0.90;77.60;;;;;;5050838;28;20021;-67
2022/12/07 06:13:06;;;;;;;14.80;9.25;;;-1.00;76.70;;;;;;5051607;28;20303;-68
2022/12/07 06:15:41;;;;;;;16.50;9.15;;;-1.00;76.60;;;;;;5040763;28;20030;-67
2022/12/07 06:18:06;;;;;;;12.38;7.50;;;-1.00;75.80;;;;;;5036757;28;20022;-67
2022/12/07 06:20:32;;;;;;;12.43;7.82;;;-1.10;77.30;;;;;;5040523;28;20033;-67
2022/12/07 06:23:00;;;;;;;15.32;9.55;;;-1.20;76.00;;;;;;5039336;28;20028;-67
2022/12/07 06:25:26;;;;;;;18.67;10.48;;;-1.20;75.70;;;;;;5045589;28;20041;-67
2022/12/07 06:27:52;;;;;;;23.75;12.27;;;-1.20;75.70;;;;;;5043808;28;20410;-67
2022/12/07 06:30:17;;;;;;;22.65;12.30;;;-1.20;74.80;;;;;;5041736;28;20036;-67
2022/12/07 06:32:43;;;;;;;22.52;12.73;;;-1.10;74.40;;;;;;5041406;28;20126;-67
2022/12/07 06:35:11;;;;;;;22.80;11.75;;;-1.10;73.80;;;;;;5047099;28;20104;-67
2022/12/07 06:37:37;;;;;;;19.75;11.27;;;-1.10;75.30;;;;;;5039233;28;20025;-67
2022/12/07 06:40:04;;;;;;;19.30;12.45;;;-1.20;74.60;;;;;;5040336;28;20032;-67
2022/12/07 06:42:29;;;;;;;16.48;10.55;;;-1.10;73.40;;;;;;5042592;28;20029;-67
2022/12/07 06:44:55;;;;;;;16.85;9.55;;;-1.10;74.00;;;;;;5043673;28;20036;-67
2022/12/07 06:47:20;;;;;;;19.98;10.38;;;-1.10;75.50;;;;;;5036276;28;20377;-67
2022/12/07 06:49:46;;;;;;;13.57;7.88;;;-1.30;76.10;;;;;;5042574;28;20029;-67
2022/12/07 06:52:11;;;;;;;14.05;8.35;;;-1.30;72.90;;;;;;5038013;28;20071;-67
2022/12/07 06:54:37;;;;;;;13.45;8.25;;;-1.20;74.00;;;;;;5042734;28;20012;-67
2022/12/07 06:57:02;;;;;;;13.18;7.80;;;-1.20;74.00;;;;;;5051142;28;20254;-67
2022/12/07 06:59:31;;;;;;;12.00;7.03;;;-1.20;74.40;;;;;;5038513;28;20029;-67
2022/12/07 07:01:57;;;;;;;13.15;7.78;;;-1.20;75.00;;;;;;5051884;28;20317;-67
2022/12/07 07:04:23;;;;;;;10.65;6.78;;;-1.20;75.10;;;;;;5055213;28;20113;-67
2022/12/07 07:06:49;;;;;;;12.38;7.18;;;-1.20;74.20;;;;;;5053710;28;20107;-67
2022/12/07 07:09:14;;;;;;;22.08;13.07;;;-1.10;75.20;;;;;;5049707;28;20117;-67
2022/12/07 07:11:42;;;;;;;22.48;13.75;;;-1.10;76.80;;;;;;5035692;28;20029;-67
2022/12/07 07:14:08;;;;;;;19.23;11.95;;;-1.10;76.30;;;;;;5051259;28;20047;-67
2022/12/07 07:16:34;;;;;;;14.70;9.63;;;-1.00;76.50;;;;;;5049626;28;20104;-67
2022/12/07 07:19:02;;;;;;;14.25;8.57;;;-1.00;77.20;;;;;;5055137;28;20083;-67
2022/12/07 07:21:27;;;;;;;22.30;13.00;;;-0.90;77.70;;;;;;5054455;28;20029;-67
2022/12/07 07:23:53;;;;;;;12.85;7.85;;;-0.90;77.50;;;;;;5036249;28;20056;-67
2022/12/07 07:26:18;;;;;;;125.32;48.47;;;-0.80;76.30;;;;;;5036602;28;20041;-67
2022/12/07 07:28:47;;;;;;;168.02;63.47;;;-0.60;77.50;;;;;;5051931;28;20025;-66
2022/12/07 07:31:15;;;;;;;87.10;37.55;;;-0.40;79.70;;;;;;5048489;28;20422;-66
2022/12/07 07:33:41;;;;;;;62.35;36.92;;;-0.30;83.40;;;;;;5055496;28;20282;-66
2022/12/07 07:36:07;;;;;;;22.42;14.40;;;-0.20;83.60;;;;;;5051603;28;20030;-66
2022/12/07 07:38:32;;;;;;;16.70;9.10;;;-0.10;87.20;;;;;;5035358;28;20018;-66
2022/12/07 07:40:58;;;;;;;16.80;10.25;;;0.00;92.00;;;;;;5036125;28;20060;-66
2022/12/07 07:43:23;;;;;;;20.92;11.65;;;-0.10;90.80;;;;;;5051022;28;20040;-66
2022/12/07 07:45:49;;;;;;;12.68;7.60;;;-0.10;90.40;;;;;;5039363;28;20030;-68
2022/12/07 07:48:14;;;;;;;12.18;7.05;;;0.00;91.00;;;;;;5039180;28;20104;-68
2022/12/07 07:50:40;;;;;;;14.50;8.35;;;-0.10;89.50;;;;;;5039225;28;20037;-67
2022/12/07 07:53:05;;;;;;;15.27;9.02;;;-0.10;88.60;;;;;;5039263;28;20026;-67
2022/12/07 07:55:31;;;;;;;13.88;9.35;;;0.00;87.40;;;;;;5041013;28;20025;-67
2022/12/07 07:58:17;;;;;;;15.07;10.77;;;0.10;86.80;;;;;;5057961;28;20017;-67
2022/12/07 08:00:42;;;;;;;13.30;9.30;;;0.10;87.40;;;;;;5052466;28;20044;-67
2022/12/07 08:03:08;;;;;;;25.15;15.55;;;0.20;87.60;;;;;;5038647;28;20374;-67
2022/12/07 08:05:33;;;;;;;32.70;16.70;;;0.30;86.80;;;;;;5039130;28;20033;-67
2022/12/07 08:07:59;;;;;;;27.88;15.38;;;0.30;87.30;;;;;;5038911;28;20480;-67
2022/12/07 08:10:25;;;;;;;20.35;12.65;;;0.50;86.40;;;;;;5043951;28;20057;-66
2022/12/07 08:15:37;;;;;;;13.50;8.68;;;0.70;87.00;;;;;;5038687;28;20033;-67
2022/12/07 08:18:03;;;;;;;13.15;8.57;;;0.70;89.50;;;;;;5055088;28;20033;-67
2022/12/07 08:20:33;;;;;;;14.38;8.48;;;0.80;88.90;;;;;;5048637;28;20099;-67
2022/12/07 08:22:59;;;;;;;7.30;4.25;;;1.00;91.40;;;;;;5049832;28;20056;-66
2022/12/07 08:25:26;;;;;;;7.00;4.20;;;1.10;98.00;;;;;;5048241;28;20049;-67
2022/12/07 08:27:52;;;;;;;6.35;3.90;;;1.30;98.00;;;;;;5038247;28;20345;-67
2022/12/07 08:30:18;;;;;;;6.53;4.00;;;1.50;98.00;;;;;;5045912;28;20310;-67
2022/12/07 08:32:47;;;;;;;10.48;6.60;;;1.60;98.00;;;;;;5057519;28;20094;-67
2022/12/07 08:35:13;;;;;;;9.60;6.07;;;1.70;98.00;;;;;;5047267;28;20029;-67
2022/12/07 08:37:39;;;;;;;9.25;5.90;;;1.70;98.00;;;;;;5038694;28;20322;-67
2022/12/07 08:40:07;;;;;;;10.85;6.60;;;1.90;98.00;;;;;;5037416;28;20036;-67
2022/12/07 08:42:37;;;;;;;13.68;9.02;;;2.00;98.00;;;;;;5053845;28;20032;-67
2022/12/07 08:45:05;;;;;;;18.08;10.55;;;2.10;98.00;;;;;;5055077;28;20044;-67
2022/12/07 08:47:31;;;;;;;14.75;9.00;;;2.40;98.00;;;;;;5037220;28;20143;-67
2022/12/07 08:50:03;;;;;;;16.67;9.80;;;2.70;98.00;;;;;;5038069;28;20029;-67
2022/12/07 08:52:32;;;;;;;13.32;9.10;;;2.80;98.00;;;;;;5038246;28;20433;-67
2022/12/07 08:54:59;;;;;;;15.05;10.18;;;3.20;98.00;;;;;;5047395;28;20025;-67
2022/12/07 08:57:26;;;;;;;17.17;11.60;;;3.00;98.00;;;;;;5054337;28;20029;-67
2022/12/07 08:59:51;;;;;;;18.75;12.38;;;2.70;98.00;;;;;;5037304;28;20026;-67
2022/12/07 09:02:17;;;;;;;18.23;11.95;;;2.40;98.00;;;;;;5038031;28;20368;-67
2022/12/07 09:04:42;;;;;;;16.55;10.35;;;2.30;98.00;;;;;;5047912;28;20531;-67
2022/12/07 09:07:12;;;;;;;19.00;11.88;;;2.30;98.00;;;;;;5039202;28;20022;-67
2022/12/07 09:09:43;;;;;;;16.63;11.07;;;2.40;98.00;;;;;;5038021;28;20108;-67
2022/12/07 09:12:08;;;;;;;18.20;10.95;;;2.50;98.00;;;;;;5052524;28;20025;-67
2022/12/07 09:14:34;;;;;;;15.02;10.35;;;2.60;98.00;;;;;;5044910;28;20032;-67
2022/12/07 09:17:13;;;;;;;16.88;11.38;;;2.80;98.00;;;;;;5038064;28;20057;-67
2022/12/07 09:19:42;;;;;;;16.40;10.25;;;2.90;98.00;;;;;;5038138;28;20053;-67
2022/12/07 09:22:08;;;;;;;16.20;9.20;;;2.80;98.00;;;;;;5037722;28;20025;-67
2022/12/07 09:24:34;;;;;;;17.15;10.18;;;2.70;98.00;;;;;;5038250;28;20105;-68
2022/12/07 09:26:59;;;;;;;16.80;9.65;;;2.80;98.00;;;;;;5038120;28;20410;-67
2022/12/07 09:29:25;;;;;;;13.93;8.73;;;2.80;98.00;;;;;;5042013;28;20060;-68
2022/12/07 09:31:51;;;;;;;18.77;11.55;;;2.90;98.00;;;;;;5037487;28;20032;-67
2022/12/07 09:34:17;;;;;;;12.88;8.40;;;2.90;98.00;;;;;;5053092;28;20021;-67
2022/12/07 09:36:43;;;;;;;25.00;12.60;;;3.00;98.00;;;;;;5056428;28;20029;-67
2022/12/07 09:39:09;;;;;;;41.25;17.45;;;3.00;98.00;;;;;;5039693;28;20055;-67
2022/12/07 09:41:39;;;;;;;12.77;8.00;;;3.20;98.00;;;;;;5056028;28;20113;-68
2022/12/07 09:44:09;;;;;;;15.52;9.65;;;3.40;98.00;;;;;;5036452;28;20026;-68
2022/12/07 09:46:41;;;;;;;12.43;8.48;;;3.50;98.00;;;;;;5036148;28;20428;-67
2022/12/07 09:49:16;;;;;;;16.60;9.07;;;3.60;98.00;;;;;;5037393;28;20052;-68
2022/12/07 09:51:43;;;;;;;21.15;12.50;;;3.70;98.00;;;;;;5037031;28;20108;-68
2022/12/07 09:54:15;;;;;;;24.00;13.27;;;3.70;98.00;;;;;;5037201;28;20045;-68
2022/12/07 09:56:45;;;;;;;14.55;9.57;;;3.40;98.00;;;;;;5039132;28;20087;-68
2022/12/07 09:59:17;;;;;;;15.02;9.57;;;3.30;98.00;;;;;;5039504;28;20144;-68
2022/12/07 10:01:44;;;;;;;16.92;9.50;;;3.30;98.00;;;;;;5035906;28;20041;-67
2022/12/07 10:04:15;;;;;;;15.27;8.93;;;3.30;98.00;;;;;;5037332;28;20314;-68
2022/12/07 10:06:41;;;;;;;17.50;10.07;;;3.30;97.60;;;;;;5055732;28;20032;-67
2022/12/07 10:09:12;;;;;;;15.90;10.48;;;3.40;98.00;;;;;;5040454;28;20026;-67
2022/12/07 10:12:03;;;;;;;19.05;12.38;;;3.40;97.30;;;;;;5037183;28;20097;-67
2022/12/07 10:14:31;;;;;;;11.68;7.93;;;3.50;97.10;;;;;;5043369;28;20029;-67
2022/12/07 10:17:01;;;;;;;10.45;6.88;;;3.40;96.60;;;;;;5036171;28;20035;-67
2022/12/07 10:19:30;;;;;;;17.48;11.18;;;3.40;95.40;;;;;;5056277;28;20426;-67
2022/12/07 10:22:14;;;;;;;10.20;6.68;;;3.40;96.70;;;;;;5053407;28;22233;-67
2022/12/07 10:24:42;;;;;;;11.43;6.82;;;3.40;95.10;;;;;;5056263;28;20051;-68
2022/12/07 10:27:17;;;;;;;11.70;7.55;;;3.50;94.90;;;;;;5051930;28;20384;-67
2022/12/07 10:29:51;;;;;;;11.90;7.32;;;3.60;95.10;;;;;;5034850;28;20091;-67
2022/12/07 10:32:19;;;;;;;13.18;8.88;;;3.70;95.20;;;;;;5036226;28;20021;-67
2022/12/07 10:34:45;;;;;;;10.65;7.10;;;3.60;94.90;;;;;;5064206;28;20030;-67
2022/12/07 10:37:27;;;;;;;11.25;7.18;;;3.70;95.30;;;;;;5052590;28;20028;-67
2022/12/07 10:39:56;;;;;;;10.02;6.15;;;3.80;94.90;;;;;;5055091;28;20029;-68
2022/12/07 10:42:26;;;;;;;10.27;6.50;;;3.90;94.60;;;;;;5044579;28;20033;-69
2022/12/07 10:45:15;;;;;;;11.38;6.95;;;3.80;93.30;;;;;;5045267;28;20434;-68
2022/12/07 10:48:00;;;;;;;11.88;7.35;;;3.80;94.70;;;;;;5055816;28;20094;-67
2022/12/07 10:50:46;;;;;;;11.45;7.72;;;3.80;94.80;;;;;;5054033;28;20029;-68
2022/12/07 10:53:31;;;;;;;13.90;8.48;;;3.70;95.90;;;;;;5054703;28;20025;-67
2022/12/07 10:55:58;;;;;;;;;;;3.60;96.80;;;;;;5043337;28;20017;-68
2022/12/07 10:58:45;;;;;;;12.93;7.82;;;3.70;96.30;;;;;;5053431;28;19908;-68
2022/12/07 11:01:31;;;;;;;12.40;8.50;;;3.70;95.70;;;;;;5050551;28;20044;-67
2022/12/07 11:04:05;;;;;;;12.00;7.68;;;3.80;96.40;;;;;;5036096;28;20060;-67
2022/12/07 11:06:56;;;;;;;10.45;6.55;;;3.70;95.70;;;;;;5035948;28;20036;-68
2022/12/07 11:09:46;;;;;;;9.50;6.18;;;3.70;95.30;;;;;;5035840;28;20036;-67
2022/12/07 11:12:39;;;;;;;15.10;9.50;;;3.60;94.40;;;;;;5037164;28;20048;-67
2022/12/07 11:15:40;;;;;;;13.38;8.38;;;3.60;95.30;;;;;;5045736;28;20708;-67
2022/12/07 11:18:29;;;;;;;12.18;7.60;;;3.80;96.00;;;;;;5055316;28;20037;-67
2022/12/07 11:21:21;;;;;;;15.45;9.10;;;3.70;96.30;;;;;;5056272;28;20040;-67
2022/12/07 11:24:13;;;;;;;13.00;7.93;;;3.80;95.50;;;;;;5058447;28;20028;-67
2022/12/07 11:27:30;;;;;;;12.68;7.50;;;3.80;94.80;;;;;;5041943;28;20045;-67
2022/12/07 11:29:56;;;;;;;11.80;7.43;;;4.00;94.80;;;;;;5036704;28;20103;-67
2022/12/07 11:32:29;;;;;;;12.10;7.10;;;4.10;93.50;;;;;;5043019;28;20033;-67
2022/12/07 11:35:32;;;;;;;15.85;7.68;;;4.10;93.40;;;;;;5041511;28;20585;-67
2022/12/07 11:38:11;;;;;;;14.25;9.85;;;4.10;94.00;;;;;;5056219;28;20125;-67
2022/12/07 11:40:39;;;;;;;16.58;10.18;;;4.20;94.80;;;;;;5059521;28;20033;-67
2022/12/07 11:43:26;;;;;;;16.42;11.20;;;4.30;94.40;;;;;;5057220;28;20029;-67
2022/12/07 11:46:07;;;;;;;11.68;8.23;;;4.40;94.00;;;;;;5059405;28;20044;-67
2022/12/07 11:49:20;;;;;;;10.63;7.10;;;4.40;93.70;;;;;;5059350;28;20410;-67
2022/12/07 11:51:53;;;;;;;15.07;7.80;;;4.50;93.20;;;;;;5035407;28;20050;-67
2022/12/07 11:54:28;;;;;;;21.55;11.35;;;4.40;92.90;;;;;;5039327;28;20061;-67
2022/12/07 11:56:56;;;;;;;13.18;8.60;;;4.30;93.60;;;;;;5039322;28;20018;-67
2022/12/07 11:59:45;;;;;;;29.00;15.80;;;4.40;93.70;;;;;;5038016;28;20029;-67
2022/12/07 12:02:40;;;;;;;24.00;12.75;;;4.40;93.40;;;;;;5038216;28;20062;-67
2022/12/07 12:05:39;;;;;;;16.23;8.57;;;4.30;94.10;;;;;;5046258;28;20311;-67
2022/12/07 12:08:13;;;;;;;28.38;14.05;;;4.30;93.90;;;;;;5022829;28;20070;-67
2022/12/07 12:11:01;;;;;;;22.45;11.23;;;4.30;94.10;;;;;;5056992;28;20303;-67
2022/12/07 12:13:51;;;;;;;21.02;10.32;;;4.20;93.30;;;;;;5056259;28;20017;-67
2022/12/07 12:16:53;;;;;;;17.75;10.70;;;4.10;93.30;;;;;;5057715;28;20104;-67
2022/12/07 12:19:55;;;;;;;13.50;8.25;;;4.30;94.50;;;;;;5058855;28;20029;-67
2022/12/07 12:22:27;;;;;;;12.93;7.53;;;4.60;94.10;;;;;;5057786;28;20032;-67
2022/12/07 12:24:54;;;;;;;11.85;7.15;;;4.60;93.80;;;;;;5058358;28;20025;-67
2022/12/07 12:27:35;;;;;;;12.38;9.02;;;4.60;93.60;;;;;;5058738;28;20021;-67
2022/12/07 12:30:31;;;;;;;10.73;6.70;;;4.50;94.50;;;;;;5056052;28;20037;-67
2022/12/07 12:33:22;;;;;;;12.80;7.32;;;4.40;93.90;;;;;;5058137;28;20021;-67
2022/12/07 12:36:20;;;;;;;12.25;7.10;;;4.70;94.10;;;;;;5058532;28;20086;-67
2022/12/07 12:39:07;;;;;;;12.38;6.88;;;4.80;93.60;;;;;;5057286;28;20025;-67
2022/12/07 12:41:35;;;;;;;12.38;7.90;;;4.80;93.70;;;;;;5056562;28;20405;-67
2022/12/07 12:44:02;;;;;;;11.60;7.22;;;4.70;93.40;;;;;;5056410;28;20021;-67
2022/12/07 12:46:33;;;;;;;12.93;7.30;;;4.60;93.70;;;;;;5055784;28;20110;-67
2022/12/07 12:49:20;;;;;;;11.27;7.45;;;4.60;94.50;;;;;;5038435;28;20029;-67
2022/12/07 12:51:50;;;;;;;11.10;6.85;;;4.60;94.00;;;;;;5038323;28;20026;-67
2022/12/07 12:54:28;;;;;;;9.13;6.03;;;4.60;94.30;;;;;;5038048;28;20084;-67
2022/12/07 12:57:13;;;;;;;11.75;6.85;;;4.60;93.50;;;;;;5037057;28;20130;-67
2022/12/07 12:59:42;;;;;;;13.32;7.90;;;4.50;93.40;;;;;;5037093;28;20075;-67
2022/12/07 13:02:25;;;;;;;9.98;6.60;;;4.60;94.20;;;;;;5052195;28;20036;-67
2022/12/07 13:05:07;;;;;;;11.45;7.18;;;4.60;93.80;;;;;;5057925;28;20330;-67
2022/12/07 13:07:51;;;;;;;19.02;9.82;;;4.40;94.40;;;;;;5057872;28;20021;-67
2022/12/07 13:10:32;;;;;;;11.55;6.28;;;4.40;95.10;;;;;;5056794;28;20422;-67